Time;durP1;ratioP1;P1;durP2;ratioP2;P2;SDS_P1;SDS_P2;PMS_P1;PMS_P2;Temp;Humidity;BMP_temperature;BMP_pressure;BME280_temperature;BME280_humidity;BME280_pressure;Samples;Min_cycle;Max_cycle;Signal;HPM_P1;HPM_P2
2022/12/22 03:25:56;;;;;;;111.55;30.35;;;;;;;;;;5001338;28;20053;-77
2022/12/22 03:28:24;;;;;;;111.45;30.08;;;;;;;;;;5036176;28;20053;-77
2022/12/22 03:30:56;;;;;;;110.13;29.33;;;;;;;;;;5002641;28;20057;-77
2022/12/22 03:33:25;;;;;;;116.18;29.15;;;;;;;;;;5001675;28;20037;-77
2022/12/22 03:35:52;;;;;;;115.35;29.77;;;;;;;;;;5001158;28;20063;-77
2022/12/22 03:38:19;;;;;;;122.10;30.95;;;;;;;;;;5005318;28;20079;-77
2022/12/22 03:40:47;;;;;;;126.03;33.40;;;;;;;;;;5001221;28;20056;-77
2022/12/22 03:51:32;;;;;;;165.05;38.30;;;;;;;;;;4998059;28;20052;-77
2022/12/22 03:54:00;;;;;;;181.52;40.40;;;;;;;;;;4999142;28;20065;-77
2022/12/22 03:56:27;;;;;;;185.55;42.95;;;;;;;;;;5003336;28;20053;-77
2022/12/22 03:58:54;;;;;;;190.00;41.97;;;;;;;;;;4992762;28;20052;-77
2022/12/22 04:01:22;;;;;;;192.80;42.92;;;;;;;;;;5002534;28;20057;-77
2022/12/22 04:03:49;;;;;;;215.93;43.42;;;;;;;;;;5016966;28;20060;-77
2022/12/22 04:06:18;;;;;;;323.20;47.95;;;;;;;;;;5001073;28;20056;-77
2022/12/22 04:08:45;;;;;;;421.83;48.20;;;;;;;;;;4993211;28;20057;-77
2022/12/22 04:13:58;;;;;;;355.65;48.22;;;;;;;;;;5034101;28;20478;-77
2022/12/22 04:16:26;;;;;;;249.25;42.35;;;;;;;;;;5002274;28;20057;-77
2022/12/22 04:18:53;;;;;;;244.15;43.00;;;;;;;;;;5003876;28;20065;-77
2022/12/22 04:21:22;;;;;;;219.73;42.28;;;;;;;;;;5000398;28;20555;-77
2022/12/22 04:23:50;;;;;;;210.65;41.15;;;;;;;;;;4999412;28;20058;-77
2022/12/22 04:26:18;;;;;;;187.32;38.90;;;;;;;;;;5003282;28;20057;-77
2022/12/22 04:28:45;;;;;;;165.65;38.28;;;;;;;;;;5000747;28;20499;-77
2022/12/22 04:31:13;;;;;;;180.65;38.03;;;;;;;;;;5001207;28;20658;-78
2022/12/22 04:33:40;;;;;;;142.57;34.78;;;;;;;;;;5003433;28;20460;-77
2022/12/22 04:36:08;;;;;;;157.05;34.33;;;;;;;;;;5002617;28;20443;-77
2022/12/22 04:38:37;;;;;;;136.60;32.35;;;;;;;;;;5004377;28;20056;-77
2022/12/22 04:41:04;;;;;;;133.25;30.85;;;;;;;;;;5005988;28;20049;-77
2022/12/22 04:43:32;;;;;;;133.23;30.02;;;;;;;;;;5002138;28;20041;-77
2022/12/22 04:46:00;;;;;;;116.65;27.23;;;;;;;;;;4999329;28;20045;-77
2022/12/22 04:48:28;;;;;;;106.32;25.35;;;;;;;;;;5001956;28;20072;-77
2022/12/22 04:50:56;;;;;;;121.07;24.15;;;;;;;;;;5000881;28;20045;-77
2022/12/22 04:53:24;;;;;;;120.00;24.02;;;;;;;;;;5004845;28;20053;-77
2022/12/22 04:55:55;;;;;;;111.82;22.55;;;;;;;;;;5000159;28;20053;-77
2022/12/22 04:58:22;;;;;;;117.40;21.77;;;;;;;;;;5006368;28;20630;-77
2022/12/22 05:00:50;;;;;;;116.78;22.92;;;;;;;;;;5002832;28;20045;-77
2022/12/22 05:03:17;;;;;;;102.43;20.52;;;;;;;;;;5007892;28;20056;-77
2022/12/22 05:05:44;;;;;;;127.03;22.02;;;;;;;;;;5005265;28;20049;-77
2022/12/22 05:08:12;;;;;;;118.78;21.58;;;;;;;;;;5001066;28;20061;-77
2022/12/22 05:10:39;;;;;;;126.90;21.92;;;;;;;;;;5006239;28;20472;-77
2022/12/22 05:13:08;;;;;;;120.25;22.42;;;;;;;;;;5000123;28;20049;-77
2022/12/22 05:15:35;;;;;;;123.75;22.80;;;;;;;;;;5000738;28;20061;-77
2022/12/22 05:18:03;;;;;;;148.80;23.98;;;;;;;;;;5001547;28;20060;-78
2022/12/22 05:20:30;;;;;;;140.73;23.27;;;;;;;;;;5006754;28;20049;-77
2022/12/22 05:22:57;;;;;;;152.55;23.35;;;;;;;;;;5005195;28;20045;-77
2022/12/22 05:25:25;;;;;;;188.77;23.00;;;;;;;;;;4998858;28;20076;-77
2022/12/22 05:27:52;;;;;;;277.63;25.88;;;;;;;;;;4999491;28;20578;-77
2022/12/22 05:30:21;;;;;;;391.80;26.70;;;;;;;;;;5036127;28;20049;-77
2022/12/22 05:32:48;;;;;;;430.08;25.25;;;;;;;;;;5002385;28;20064;-77
2022/12/22 05:35:16;;;;;;;617.50;30.23;;;;;;;;;;4996007;28;20058;-77
2022/12/22 05:37:43;;;;;;;414.13;26.00;;;;;;;;;;4998682;28;20679;-78
2022/12/22 05:40:11;;;;;;;462.52;28.20;;;;;;;;;;5002794;28;20045;-77
2022/12/22 05:42:39;;;;;;;480.45;23.65;;;;;;;;;;4998170;28;20056;-77
2022/12/22 05:45:08;;;;;;;457.25;21.88;;;;;;;;;;4999423;28;20060;-77
2022/12/22 05:47:36;;;;;;;425.85;25.33;;;;;;;;;;5002985;28;20058;-77
2022/12/22 05:50:04;;;;;;;512.55;26.13;;;;;;;;;;4997695;28;20058;-77
2022/12/22 05:52:31;;;;;;;450.33;27.92;;;;;;;;;;4994533;28;20045;-76
2022/12/22 05:54:59;;;;;;;361.00;22.38;;;;;;;;;;5002284;28;20045;-77
2022/12/22 05:57:26;;;;;;;418.70;27.30;;;;;;;;;;5005865;28;20064;-77
2022/12/22 05:59:53;;;;;;;369.42;28.42;;;;;;;;;;5007159;28;20049;-77
2022/12/22 06:02:21;;;;;;;329.95;22.45;;;;;;;;;;5006477;28;20041;-77
2022/12/22 06:04:49;;;;;;;335.45;22.35;;;;;;;;;;5005919;28;20053;-78
2022/12/22 06:07:17;;;;;;;336.52;21.77;;;;;;;;;;5002390;28;20053;-77
2022/12/22 06:09:44;;;;;;;302.38;20.70;;;;;;;;;;5000853;28;20053;-78
2022/12/22 06:12:11;;;;;;;316.65;23.02;;;;;;;;;;5001063;28;20168;-77
2022/12/22 06:14:39;;;;;;;342.02;19.52;;;;;;;;;;5003114;28;20050;-76
2022/12/22 06:17:06;;;;;;;212.75;14.98;;;;;;;;;;5002838;28;21191;-77
2022/12/22 06:19:34;;;;;;;277.00;14.13;;;;;;;;;;4984898;28;20062;-78
2022/12/22 06:22:02;;;;;;;223.57;14.80;;;;;;;;;;5003400;28;20049;-76
2022/12/22 06:24:30;;;;;;;244.43;15.07;;;;;;;;;;5004618;28;20045;-77
2022/12/22 06:26:57;;;;;;;190.35;14.88;;;;;;;;;;5002451;28;20068;-77
2022/12/22 06:29:24;;;;;;;199.95;14.00;;;;;;;;;;4997183;28;20054;-76
2022/12/22 06:31:51;;;;;;;325.80;18.00;;;;;;;;;;4999268;28;20057;-77
2022/12/22 06:34:20;;;;;;;243.73;17.23;;;;;;;;;;5007649;28;20704;-77
2022/12/22 06:36:47;;;;;;;209.60;14.73;;;;;;;;;;5001728;28;20049;-77
2022/12/22 06:39:16;;;;;;;195.00;16.63;;;;;;;;;;5006887;28;20057;-77
2022/12/22 06:44:29;;;;;;;161.57;14.52;;;;;;;;;;4998973;28;20049;-77
2022/12/22 06:46:56;;;;;;;142.63;14.30;;;;;;;;;;5012074;28;20512;-76
2022/12/22 06:49:23;;;;;;;174.70;14.15;;;;;;;;;;5003241;28;20092;-77
2022/12/22 06:51:51;;;;;;;150.52;13.98;;;;;;;;;;5003711;28;20055;-76
2022/12/22 06:54:19;;;;;;;160.15;14.38;;;;;;;;;;5004881;28;20151;-77
2022/12/22 06:56:47;;;;;;;117.45;12.55;;;;;;;;;;5007710;28;20049;-77
2022/12/22 06:59:14;;;;;;;156.75;10.50;;;;;;;;;;5035111;28;20175;-77
2022/12/22 07:01:42;;;;;;;112.35;9.60;;;;;;;;;;5003158;28;20132;-77
2022/12/22 07:04:09;;;;;;;193.95;11.88;;;;;;;;;;5001860;28;20049;-77
2022/12/22 07:06:37;;;;;;;110.10;9.15;;;;;;;;;;5001401;28;20701;-77
2022/12/22 07:09:04;;;;;;;110.00;9.02;;;;;;;;;;5003499;28;20076;-77
2022/12/22 07:11:33;;;;;;;146.68;11.05;;;;;;;;;;5005535;28;20068;-77
2022/12/22 07:14:00;;;;;;;214.55;13.13;;;;;;;;;;5006487;28;20136;-77
2022/12/22 07:16:28;;;;;;;90.50;8.10;;;;;;;;;;5003084;28;20604;-77
2022/12/22 07:18:55;;;;;;;100.55;7.68;;;;;;;;;;5006484;28;20057;-76
2022/12/22 07:21:22;;;;;;;116.72;8.60;;;;;;;;;;5000199;28;20474;-76
2022/12/22 07:23:50;;;;;;;53.72;7.82;;;;;;;;;;4999946;28;20046;-76
2022/12/22 07:26:17;;;;;;;117.40;8.32;;;;;;;;;;5002763;28;20053;-77
2022/12/22 07:28:46;;;;;;;113.38;7.30;;;;;;;;;;5002422;28;20529;-76
2022/12/22 07:31:16;;;;;;;134.90;10.35;;;;;;;;;;5005448;28;20041;-77
2022/12/22 07:33:43;;;;;;;143.95;10.13;;;;;;;;;;5003597;28;20048;-77
2022/12/22 07:36:11;;;;;;;181.20;10.85;;;;;;;;;;5004022;28;20064;-77
2022/12/22 07:38:40;;;;;;;144.30;11.60;;;;;;;;;;5008192;28;20045;-76
2022/12/22 07:42:43;;;;;;;113.88;7.72;;;;;;;;;;5003323;28;20522;-76
2022/12/22 07:43:57;;;;;;;142.35;8.52;;;;;;;;;;5000235;28;20133;-77
2022/12/22 07:46:25;;;;;;;248.57;11.20;;;;;;;;;;5001052;28;20523;-76
2022/12/22 07:51:39;;;;;;;143.77;7.65;;;;;;;;;;5032377;28;20041;-77
2022/12/22 07:54:07;;;;;;;122.72;7.80;;;;;;;;;;5034626;28;20143;-76
2022/12/22 07:56:34;;;;;;;93.80;7.80;;;;;;;;;;5004189;28;20057;-77
2022/12/22 07:59:03;;;;;;;102.15;6.63;;;;;;;;;;5003516;28;20207;-77
2022/12/22 08:01:30;;;;;;;75.82;5.50;;;;;;;;;;5034537;28;20064;-77
2022/12/22 08:03:58;;;;;;;86.43;6.75;;;;;;;;;;5002228;28;20045;-77
2022/12/22 08:06:25;;;;;;;139.68;7.65;;;;;;;;;;5001532;28;20060;-76
2022/12/22 08:08:53;;;;;;;99.25;5.93;;;;;;;;;;5013998;28;21303;-77
2022/12/22 08:11:20;;;;;;;123.55;6.18;;;;;;;;;;5003410;28;20060;-77
2022/12/22 08:13:48;;;;;;;125.80;6.50;;;;;;;;;;5000314;28;20041;-77
2022/12/22 08:16:19;;;;;;;155.52;6.35;;;;;;;;;;4996703;28;20064;-77
2022/12/22 08:18:46;;;;;;;124.32;7.68;;;;;;;;;;5004080;28;20053;-77
2022/12/22 08:21:14;;;;;;;127.15;6.88;;;;;;;;;;5003342;28;20120;-77
2022/12/22 08:23:41;;;;;;;73.47;5.70;;;;;;;;;;5003532;28;20571;-77
2022/12/22 08:26:10;;;;;;;103.82;6.88;;;;;;;;;;5002820;28;20053;-77
2022/12/22 08:28:39;;;;;;;63.53;5.72;;;;;;;;;;5000002;28;20606;-77
2022/12/22 08:31:07;;;;;;;96.68;6.68;;;;;;;;;;4999799;28;20474;-76
2022/12/22 08:33:35;;;;;;;100.18;6.95;;;;;;;;;;5002389;28;20053;-76
2022/12/22 08:36:03;;;;;;;44.97;6.43;;;;;;;;;;5018455;28;20049;-77
2022/12/22 08:38:31;;;;;;;34.63;6.20;;;;;;;;;;5002567;28;20152;-76
2022/12/22 08:40:58;;;;;;;19.70;5.85;;;;;;;;;;5001117;28;20064;-77
2022/12/22 08:43:27;;;;;;;15.60;4.90;;;;;;;;;;5032036;28;20052;-77
2022/12/22 08:45:55;;;;;;;8.25;5.28;;;;;;;;;;5000621;28;20060;-76
2022/12/22 08:48:22;;;;;;;20.45;5.63;;;;;;;;;;5001897;28;20053;-76
2022/12/22 08:50:51;;;;;;;11.05;4.97;;;;;;;;;;4999694;28;20045;-77
2022/12/22 08:53:18;;;;;;;11.63;5.32;;;;;;;;;;5000651;28;20409;-77
2022/12/22 08:55:51;;;;;;;13.25;5.55;;;;;;;;;;4980476;28;20080;-77
2022/12/22 08:58:18;;;;;;;8.05;4.72;;;;;;;;;;4986850;28;20050;-77
2022/12/22 09:00:45;;;;;;;9.25;4.70;;;;;;;;;;5017497;28;20072;-77
2022/12/22 09:03:13;;;;;;;12.10;5.63;;;;;;;;;;4998718;28;20058;-76
2022/12/22 09:05:40;;;;;;;14.57;5.43;;;;;;;;;;4983005;28;20054;-76
2022/12/22 09:08:09;;;;;;;13.85;6.28;;;;;;;;;;4992561;28;20128;-76
2022/12/22 09:10:37;;;;;;;11.88;5.80;;;;;;;;;;4986556;28;20052;-76
2022/12/22 09:13:04;;;;;;;15.13;6.25;;;;;;;;;;5000131;28;20276;-76
2022/12/22 09:15:31;;;;;;;17.73;5.97;;;;;;;;;;4999510;28;21363;-77
2022/12/22 09:17:59;;;;;;;15.52;6.32;;;;;;;;;;5033482;28;20057;-76
2022/12/22 09:20:26;;;;;;;24.48;7.07;;;;;;;;;;5000989;28;20522;-77
2022/12/22 09:22:53;;;;;;;19.92;6.55;;;;;;;;;;4999242;28;20053;-77
2022/12/22 09:25:22;;;;;;;16.25;6.47;;;;;;;;;;5000886;28;20042;-77
2022/12/22 09:27:49;;;;;;;18.38;7.07;;;;;;;;;;4999892;28;20056;-77
2022/12/22 09:30:17;;;;;;;16.42;7.05;;;;;;;;;;4998439;28;20809;-76
2022/12/22 09:32:44;;;;;;;21.40;7.63;;;;;;;;;;5002644;28;20120;-77
2022/12/22 09:35:12;;;;;;;25.70;7.13;;;;;;;;;;5005234;28;20068;-77
2022/12/22 09:37:39;;;;;;;20.10;7.28;;;;;;;;;;5007224;28;20561;-77
2022/12/22 09:40:07;;;;;;;20.83;7.18;;;;;;;;;;5000342;28;20097;-77
2022/12/22 09:42:36;;;;;;;17.60;7.00;;;;;;;;;;5001426;28;20564;-77
2022/12/22 09:45:03;;;;;;;24.33;6.45;;;;;;;;;;5002297;28;20495;-76
2022/12/22 09:47:34;;;;;;;26.95;6.88;;;;;;;;;;5007312;28;20076;-77
2022/12/22 09:50:02;;;;;;;15.95;5.97;;;;;;;;;;4998933;28;20063;-77
2022/12/22 09:52:40;;;;;;;20.95;6.57;;;;;;;;;;5001013;28;20050;-77
2022/12/22 09:55:13;;;;;;;19.92;5.03;;;;;;;;;;5007100;28;20053;-77
2022/12/22 09:57:42;;;;;;;17.67;4.47;;;;;;;;;;5003580;28;20301;-77
2022/12/22 10:00:14;;;;;;;17.50;4.88;;;;;;;;;;5006232;28;20426;-77
2022/12/22 10:02:44;;;;;;;17.40;4.35;;;;;;;;;;4999222;28;20060;-77
2022/12/22 10:05:25;;;;;;;18.98;4.30;;;;;;;;;;5003697;28;20057;-76
2022/12/22 10:07:52;;;;;;;16.80;3.70;;;;;;;;;;5007871;28;20046;-77
2022/12/22 10:10:24;;;;;;;19.80;3.65;;;;;;;;;;5001462;28;20081;-77
2022/12/22 10:12:53;;;;;;;23.23;4.35;;;;;;;;;;4999215;28;20878;-77
2022/12/22 10:15:20;;;;;;;14.10;3.50;;;;;;;;;;4997605;28;20050;-77
2022/12/22 10:17:50;;;;;;;14.93;3.53;;;;;;;;;;5001858;28;20046;-78
2022/12/22 10:20:24;;;;;;;12.00;2.95;;;;;;;;;;4984217;28;20050;-77
2022/12/22 10:22:51;;;;;;;;;;;;;;;;;;4986683;28;20396;-78
2022/12/22 10:25:27;;;;;;;13.13;2.92;;;;;;;;;;4982432;28;20422;-77
2022/12/22 10:27:58;;;;;;;20.95;2.80;;;;;;;;;;4982934;28;20053;-78
2022/12/22 10:30:27;;;;;;;27.67;3.22;;;;;;;;;;4982561;28;20053;-78
2022/12/22 10:33:05;;;;;;;17.08;3.03;;;;;;;;;;4981055;28;20042;-78
2022/12/22 10:35:43;;;;;;;17.98;3.03;;;;;;;;;;4990167;28;20057;-77
2022/12/22 10:38:15;;;;;;;15.55;2.00;;;;;;;;;;4984316;28;20742;-77
2022/12/22 10:40:44;;;;;;;14.68;1.98;;;;;;;;;;4983773;28;20050;-77
2022/12/22 10:43:18;;;;;;;12.32;1.83;;;;;;;;;;4980665;28;20054;-77
2022/12/22 10:45:47;;;;;;;14.68;2.28;;;;;;;;;;4976947;28;20050;-77
2022/12/22 10:48:17;;;;;;;16.98;2.58;;;;;;;;;;4981327;28;20066;-77
2022/12/22 10:50:46;;;;;;;23.52;2.55;;;;;;;;;;4977380;28;20050;-78
2022/12/22 10:53:14;;;;;;;16.55;2.28;;;;;;;;;;4975232;28;20065;-78
2022/12/22 10:55:43;;;;;;;16.98;2.45;;;;;;;;;;5011380;28;20499;-77
2022/12/22 10:58:20;;;;;;;20.10;2.30;;;;;;;;;;4983250;28;20045;-78
2022/12/22 11:01:00;;;;;;;13.88;2.05;;;;;;;;;;4976226;28;20089;-77
2022/12/22 11:03:30;;;;;;;24.55;2.30;;;;;;;;;;4980221;28;20054;-78
2022/12/22 11:05:57;;;;;;;16.42;2.17;;;;;;;;;;4979075;28;20104;-77
2022/12/22 11:08:25;;;;;;;15.70;2.30;;;;;;;;;;4989266;28;20050;-78
2022/12/22 11:10:55;;;;;;;11.90;2.20;;;;;;;;;;4987570;28;20111;-78
2022/12/22 11:13:37;;;;;;;19.58;1.88;;;;;;;;;;4974930;28;20056;-78
2022/12/22 11:16:10;;;;;;;14.00;1.98;;;;;;;;;;4991185;28;20053;-78
2022/12/22 11:18:44;;;;;;;19.90;2.67;;;;;;;;;;5002561;28;20057;-78
2022/12/22 11:21:16;;;;;;;24.70;3.90;;;;;;;;;;5002019;28;20148;-77
2022/12/22 11:23:49;;;;;;;25.17;2.35;;;;;;;;;;5002094;28;20045;-77
2022/12/22 11:26:21;;;;;;;18.23;2.20;;;;;;;;;;5004082;28;20762;-77
2022/12/22 11:28:58;;;;;;;15.57;1.92;;;;;;;;;;5002436;28;20075;-77
2022/12/22 11:31:36;;;;;;;23.92;2.22;;;;;;;;;;4994014;28;20052;-78
2022/12/22 11:34:10;;;;;;;14.63;2.20;;;;;;;;;;5002888;28;20056;-77
2022/12/22 11:36:46;;;;;;;21.70;2.53;;;;;;;;;;4997805;28;20050;-77
2022/12/22 11:39:14;;;;;;;24.40;3.50;;;;;;;;;;5006978;28;20049;-79
2022/12/22 11:41:53;;;;;;;12.65;1.77;;;;;;;;;;5006595;28;20049;-77
2022/12/22 11:44:36;;;;;;;18.92;3.17;;;;;;;;;;5002255;28;20056;-77
2022/12/22 11:47:12;;;;;;;14.82;2.67;;;;;;;;;;5001822;28;20046;-77
2022/12/22 11:49:47;;;;;;;18.50;2.10;;;;;;;;;;4996441;28;20049;-78
2022/12/22 11:52:19;;;;;;;16.63;2.35;;;;;;;;;;5005656;28;20052;-77
2022/12/22 11:55:01;;;;;;;24.88;2.47;;;;;;;;;;5003421;28;20518;-77
2022/12/22 11:57:32;;;;;;;20.45;2.42;;;;;;;;;;4996975;28;20056;-77
2022/12/22 12:00:03;;;;;;;22.58;3.20;;;;;;;;;;5006423;28;20192;-77
2022/12/22 12:02:41;;;;;;;22.58;2.55;;;;;;;;;;5002646;28;20048;-77
2022/12/22 12:05:16;;;;;;;23.95;2.80;;;;;;;;;;4989518;28;20441;-77
2022/12/22 12:07:46;;;;;;;18.38;2.38;;;;;;;;;;4993922;28;20056;-77
2022/12/22 12:10:15;;;;;;;23.80;3.40;;;;;;;;;;5003363;28;20060;-78
2022/12/22 12:12:48;;;;;;;20.45;2.60;;;;;;;;;;5006797;28;20042;-78
2022/12/22 12:15:20;;;;;;;25.33;2.63;;;;;;;;;;5005145;28;20053;-77
2022/12/22 12:17:55;;;;;;;17.80;2.30;;;;;;;;;;5002488;28;20917;-77
2022/12/22 12:20:30;;;;;;;20.52;2.33;;;;;;;;;;4998488;28;20060;-78
2022/12/22 12:23:03;;;;;;;22.95;2.30;;;;;;;;;;4996924;28;20053;-77
2022/12/22 12:25:34;;;;;;;19.08;2.50;;;;;;;;;;5000167;28;20064;-78
2022/12/22 12:28:10;;;;;;;17.10;2.50;;;;;;;;;;5001272;28;20061;-78
2022/12/22 12:30:43;;;;;;;17.88;2.33;;;;;;;;;;5001621;28;20053;-78
2022/12/22 12:33:16;;;;;;;25.25;2.30;;;;;;;;;;4999374;28;20053;-78
2022/12/22 12:35:47;;;;;;;21.02;2.35;;;;;;;;;;5009327;28;20564;-78
2022/12/22 12:38:18;;;;;;;16.60;2.28;;;;;;;;;;5006954;28;20132;-77
2022/12/22 12:40:49;;;;;;;21.38;2.85;;;;;;;;;;5000051;28;20751;-77
2022/12/22 12:43:16;;;;;;;18.33;2.40;;;;;;;;;;5001063;28;20052;-77
2022/12/22 12:45:45;;;;;;;15.77;1.95;;;;;;;;;;5001453;28;20049;-77
2022/12/22 12:48:45;;;;;;;20.90;2.28;;;;;;;;;;5003981;28;20053;-77
2022/12/22 12:51:42;;;;;;;20.80;2.88;;;;;;;;;;4949420;28;20172;-77
2022/12/22 12:54:24;;;;;;;27.70;2.58;;;;;;;;;;4862502;29;20048;-76
2022/12/22 12:56:55;;;;;;;18.88;2.40;;;;;;;;;;4966216;28;20046;-76
2022/12/22 12:59:37;;;;;;;16.65;2.25;;;;;;;;;;5000057;28;20144;-76
2022/12/22 13:02:04;;;;;;;15.70;1.92;;;;;;;;;;5000345;28;20076;-77
2022/12/22 13:04:50;;;;;;;19.48;2.58;;;;;;;;;;5002593;28;20056;-76
2022/12/22 13:07:18;;;;;;;15.80;2.50;;;;;;;;;;5034583;28;20173;-76
2022/12/22 13:10:00;;;;;;;21.92;2.33;;;;;;;;;;5003520;28;20111;-76
2022/12/22 13:12:35;;;;;;;25.40;2.45;;;;;;;;;;5001548;28;20053;-76
2022/12/22 13:15:02;;;;;;;23.00;2.78;;;;;;;;;;5000966;28;20872;-76
2022/12/22 13:17:34;;;;;;;12.63;2.25;;;;;;;;;;4999815;28;20042;-76
2022/12/22 13:20:01;;;;;;;22.48;2.20;;;;;;;;;;4994217;28;20056;-76
2022/12/22 13:22:28;;;;;;;20.00;2.47;;;;;;;;;;5001751;28;20687;-75
2022/12/22 13:24:56;;;;;;;28.75;2.45;;;;;;;;;;5005733;28;20049;-76
2022/12/22 13:27:23;;;;;;;18.83;2.38;;;;;;;;;;4992039;28;20065;-76
2022/12/22 13:29:53;;;;;;;16.10;1.83;;;;;;;;;;4996665;28;20064;-76
2022/12/22 13:32:26;;;;;;;23.40;2.08;;;;;;;;;;5003838;28;20088;-76
2022/12/22 13:35:07;;;;;;;27.93;2.13;;;;;;;;;;5010640;28;20045;-76
2022/12/22 13:37:40;;;;;;;22.70;2.65;;;;;;;;;;5005080;28;20681;-76
2022/12/22 13:40:09;;;;;;;20.27;2.20;;;;;;;;;;5002982;28;20123;-76
2022/12/22 13:42:37;;;;;;;16.48;2.13;;;;;;;;;;5002652;28;20703;-76
2022/12/22 13:45:07;;;;;;;18.20;2.00;;;;;;;;;;5004711;28;20148;-76
2022/12/22 13:47:34;;;;;;;17.35;2.72;;;;;;;;;;5008408;28;20063;-75
2022/12/22 13:50:01;;;;;;;27.38;2.60;;;;;;;;;;5006062;28;20052;-76
2022/12/22 13:52:29;;;;;;;16.30;2.15;;;;;;;;;;5006434;28;20049;-76
2022/12/22 13:54:56;;;;;;;19.88;2.17;;;;;;;;;;5005973;28;20060;-76
2022/12/22 13:57:23;;;;;;;25.33;3.28;;;;;;;;;;5039998;28;20504;-76
2022/12/22 13:59:51;;;;;;;17.77;2.15;;;;;;;;;;5005936;28;20057;-76
2022/12/22 14:02:21;;;;;;;21.30;2.88;;;;;;;;;;5005739;28;20147;-76
2022/12/22 14:05:03;;;;;;;12.77;1.75;;;;;;;;;;5009489;28;20079;-76
2022/12/22 14:07:30;;;;;;;12.00;1.90;;;;;;;;;;5021713;28;20578;-76
2022/12/22 14:09:58;;;;;;;18.08;2.10;;;;;;;;;;5004467;28;20076;-76
2022/12/22 14:12:26;;;;;;;15.85;1.85;;;;;;;;;;5009153;28;20053;-74
2022/12/22 14:14:54;;;;;;;18.85;2.08;;;;;;;;;;5006875;28;20049;-76
2022/12/22 14:17:24;;;;;;;16.75;3.05;;;;;;;;;;5012370;28;20107;-76
2022/12/22 14:19:54;;;;;;;10.25;1.52;;;;;;;;;;5005645;28;20836;-76
2022/12/22 14:22:23;;;;;;;13.38;2.10;;;;;;;;;;5002465;28;20049;-76
2022/12/22 14:24:53;;;;;;;15.40;2.22;;;;;;;;;;5004451;28;20049;-76
2022/12/22 14:27:24;;;;;;;15.07;1.52;;;;;;;;;;5010650;28;20050;-77
2022/12/22 14:29:52;;;;;;;17.13;2.03;;;;;;;;;;5006799;28;20890;-77
2022/12/22 14:32:35;;;;;;;12.75;2.05;;;;;;;;;;5003481;28;20045;-77
2022/12/22 14:35:02;;;;;;;13.23;2.03;;;;;;;;;;5003398;28;20634;-76
2022/12/22 14:37:29;;;;;;;11.52;1.60;;;;;;;;;;5004278;28;20937;-77
2022/12/22 14:39:57;;;;;;;18.75;2.33;;;;;;;;;;5003193;28;20761;-76
2022/12/22 14:42:25;;;;;;;10.20;1.48;;;;;;;;;;5004989;28;20690;-77
2022/12/22 14:44:52;;;;;;;14.77;1.60;;;;;;;;;;5003418;28;20136;-76
2022/12/22 14:47:27;;;;;;;19.92;1.83;;;;;;;;;;5004295;28;20080;-76
2022/12/22 14:49:57;;;;;;;14.07;2.05;;;;;;;;;;5005027;28;20049;-77
2022/12/22 14:52:26;;;;;;;12.23;1.90;;;;;;;;;;5036938;28;20053;-77
2022/12/22 14:54:55;;;;;;;16.13;1.75;;;;;;;;;;5004582;28;20119;-76
2022/12/22 14:57:28;;;;;;;12.10;2.00;;;;;;;;;;5004175;28;20042;-76
2022/12/22 14:59:59;;;;;;;12.15;1.80;;;;;;;;;;5003502;28;20145;-77
2022/12/22 15:02:29;;;;;;;12.00;2.25;;;;;;;;;;5036576;28;20064;-76
2022/12/22 15:05:08;;;;;;;12.90;1.98;;;;;;;;;;5032818;28;20045;-76
2022/12/22 15:07:43;;;;;;;13.82;1.85;;;;;;;;;;5003736;28;20045;-75
2022/12/22 15:10:11;;;;;;;17.75;4.30;;;;;;;;;;5001310;28;20050;-79
2022/12/22 15:12:38;;;;;;;17.35;4.63;;;;;;;;;;5003759;28;20776;-78
2022/12/22 15:15:12;;;;;;;11.60;2.83;;;;;;;;;;5003892;28;20141;-77
2022/12/22 15:17:40;;;;;;;11.02;2.75;;;;;;;;;;5035925;28;20077;-77
2022/12/22 15:20:14;;;;;;;19.88;3.00;;;;;;;;;;5002711;28;20342;-76
2022/12/22 15:22:41;;;;;;;22.23;2.65;;;;;;;;;;5000602;28;20069;-76
2022/12/22 15:25:12;;;;;;;9.57;2.50;;;;;;;;;;5002433;28;20484;-77
2022/12/22 15:27:40;;;;;;;16.17;2.28;;;;;;;;;;5002697;28;20058;-76
2022/12/22 15:30:08;;;;;;;19.05;3.03;;;;;;;;;;5001305;28;20072;-76
2022/12/22 15:32:35;;;;;;;14.90;2.95;;;;;;;;;;5001298;28;20055;-76
2022/12/22 15:35:03;;;;;;;14.07;2.90;;;;;;;;;;4998017;28;20056;-76
2022/12/22 15:37:31;;;;;;;13.32;2.92;;;;;;;;;;5003383;28;20056;-77
2022/12/22 15:39:59;;;;;;;14.90;3.88;;;;;;;;;;5001989;28;20050;-77
2022/12/22 15:42:26;;;;;;;19.63;4.82;;;;;;;;;;5000949;28;20049;-76
2022/12/22 15:44:53;;;;;;;20.05;7.18;;;;;;;;;;5006155;28;20060;-78
2022/12/22 15:47:21;;;;;;;23.98;8.88;;;;;;;;;;5001571;28;20056;-78
2022/12/22 15:49:48;;;;;;;26.70;10.73;;;;;;;;;;5003104;28;20053;-77
2022/12/22 15:52:16;;;;;;;28.65;13.82;;;;;;;;;;5001037;28;20583;-77
2022/12/22 15:54:44;;;;;;;32.33;13.38;;;;;;;;;;5002772;28;20053;-79
2022/12/22 15:57:13;;;;;;;31.30;15.57;;;;;;;;;;5002354;28;20600;-78
2022/12/22 15:59:41;;;;;;;29.63;16.00;;;;;;;;;;5002543;28;20551;-78
2022/12/22 16:02:11;;;;;;;37.08;17.08;;;;;;;;;;5003723;28;20053;-78
2022/12/22 16:04:38;;;;;;;40.72;18.15;;;;;;;;;;5003626;28;20451;-78
2022/12/22 16:07:06;;;;;;;33.05;16.83;;;;;;;;;;5001638;28;20054;-79
2022/12/22 16:09:37;;;;;;;36.40;17.75;;;;;;;;;;5002442;28;20049;-77
2022/12/22 16:12:09;;;;;;;33.75;17.27;;;;;;;;;;5001532;28;20057;-78
2022/12/22 16:14:37;;;;;;;33.95;16.15;;;;;;;;;;5006822;28;20055;-79
2022/12/22 16:17:04;;;;;;;36.05;18.13;;;;;;;;;;5001955;28;20053;-78
2022/12/22 16:19:32;;;;;;;33.05;16.80;;;;;;;;;;5034643;28;20486;-77
2022/12/22 16:21:59;;;;;;;31.42;17.35;;;;;;;;;;4999016;28;20053;-77
2022/12/22 16:24:28;;;;;;;33.60;17.02;;;;;;;;;;5000265;28;20042;-76
2022/12/22 16:26:56;;;;;;;29.70;15.90;;;;;;;;;;5001682;28;20053;-76
2022/12/22 16:29:25;;;;;;;24.80;15.48;;;;;;;;;;5002758;28;20057;-76
2022/12/22 16:31:53;;;;;;;32.30;15.73;;;;;;;;;;4994938;28;20056;-77
2022/12/22 16:34:20;;;;;;;32.42;15.98;;;;;;;;;;4997181;28;20056;-76
2022/12/22 16:36:48;;;;;;;37.85;16.77;;;;;;;;;;5000517;28;20057;-76
2022/12/22 16:39:15;;;;;;;34.33;17.30;;;;;;;;;;4997817;28;20551;-77
2022/12/22 16:41:44;;;;;;;32.38;16.50;;;;;;;;;;4995832;28;20049;-76
2022/12/22 16:44:18;;;;;;;30.92;16.63;;;;;;;;;;4999209;28;20080;-76
2022/12/22 16:46:47;;;;;;;31.95;17.08;;;;;;;;;;5001124;28;20504;-77
2022/12/22 16:49:17;;;;;;;29.98;16.63;;;;;;;;;;5000045;28;20052;-77
2022/12/22 16:51:46;;;;;;;35.17;18.15;;;;;;;;;;5000514;28;20687;-77
2022/12/22 16:54:14;;;;;;;38.45;19.15;;;;;;;;;;4998765;28;20057;-79
2022/12/22 16:56:42;;;;;;;33.38;17.98;;;;;;;;;;4998364;28;20046;-81
2022/12/22 16:59:09;;;;;;;29.48;18.15;;;;;;;;;;4999346;28;20115;-77
2022/12/22 17:01:38;;;;;;;31.23;18.38;;;;;;;;;;4995736;28;20056;-84
2022/12/22 17:04:08;;;;;;;32.50;19.08;;;;;;;;;;5000101;28;20055;-81
2022/12/22 17:06:36;;;;;;;33.42;19.20;;;;;;;;;;4995027;28;20423;-79
2022/12/22 17:09:04;;;;;;;34.80;20.00;;;;;;;;;;4995114;28;20731;-80
2022/12/22 17:11:33;;;;;;;43.10;20.60;;;;;;;;;;4989642;28;20068;-76
2022/12/22 17:14:03;;;;;;;32.78;20.02;;;;;;;;;;5031690;28;20052;-77
2022/12/22 17:16:31;;;;;;;35.60;19.25;;;;;;;;;;4995192;28;20057;-76
2022/12/22 17:18:58;;;;;;;37.90;22.35;;;;;;;;;;5009457;28;20061;-83
2022/12/22 17:21:28;;;;;;;42.42;21.00;;;;;;;;;;4978743;28;20081;-78
2022/12/22 17:24:02;;;;;;;37.38;21.10;;;;;;;;;;4989701;28;20050;-80
2022/12/22 17:26:30;;;;;;;35.67;20.52;;;;;;;;;;4973925;28;20126;-79
2022/12/22 17:28:58;;;;;;;38.78;21.55;;;;;;;;;;4975273;28;20057;-77
2022/12/22 17:31:25;;;;;;;41.53;23.15;;;;;;;;;;4977360;28;20789;-79
2022/12/22 17:33:52;;;;;;;37.10;21.55;;;;;;;;;;4959733;28;20078;-78
2022/12/22 17:36:25;;;;;;;42.83;21.95;;;;;;;;;;4980023;28;20473;-79
2022/12/22 17:38:54;;;;;;;48.25;23.95;;;;;;;;;;4971119;28;20116;-79
2022/12/22 17:41:22;;;;;;;50.47;25.23;;;;;;;;;;4979717;28;20057;-78
2022/12/22 17:43:49;;;;;;;55.92;25.77;;;;;;;;;;4972365;28;20060;-78
2022/12/22 17:46:17;;;;;;;51.05;24.67;;;;;;;;;;4983212;28;20042;-78
2022/12/22 17:48:45;;;;;;;55.22;27.55;;;;;;;;;;4979888;28;21319;-78
2022/12/22 17:51:17;;;;;;;63.25;29.13;;;;;;;;;;4974645;28;20081;-77
2022/12/22 17:53:44;;;;;;;61.67;29.70;;;;;;;;;;4977301;28;20058;-78
2022/12/22 17:56:15;;;;;;;80.50;33.58;;;;;;;;;;4974431;28;20125;-75
2022/12/22 17:58:43;;;;;;;59.30;30.25;;;;;;;;;;4975508;28;20058;-75
2022/12/22 18:01:19;;;;;;;64.07;29.52;;;;;;;;;;4975117;28;20129;-76
2022/12/22 18:03:46;;;;;;;63.65;27.77;;;;;;;;;;4970365;28;20567;-75
2022/12/22 18:06:14;;;;;;;63.08;29.60;;;;;;;;;;4974718;28;20502;-75
2022/12/22 18:08:41;;;;;;;65.18;31.10;;;;;;;;;;4963456;28;20055;-75
2022/12/22 18:11:09;;;;;;;71.68;30.58;;;;;;;;;;4975014;28;20042;-75
2022/12/22 18:13:37;;;;;;;72.38;32.13;;;;;;;;;;4976421;28;20050;-75
2022/12/22 18:16:06;;;;;;;65.03;32.00;;;;;;;;;;4969382;28;20704;-75